sensor_id;sensor_type;location;lat;lon;timestamp;P1;durP1;ratioP1;P2;durP2;ratioP2
42332;SDS011;27984;51.476;5.702;2023-07-13T00:01:42;5.65;;;1.85;;
42332;SDS011;27984;51.476;5.702;2023-07-13T00:04:08;6.88;;;2.10;;
42332;SDS011;27984;51.476;5.702;2023-07-13T00:06:34;6.90;;;2.15;;
42332;SDS011;27984;51.476;5.702;2023-07-13T00:09:00;10.18;;;2.53;;
42332;SDS011;27984;51.476;5.702;2023-07-13T00:11:27;10.88;;;2.90;;
42332;SDS011;27984;51.476;5.702;2023-07-13T00:13:53;7.05;;;2.33;;
42332;SDS011;27984;51.476;5.702;2023-07-13T00:16:19;5.85;;;2.22;;
42332;SDS011;27984;51.476;5.702;2023-07-13T00:18:45;8.10;;;2.50;;
42332;SDS011;27984;51.476;5.702;2023-07-13T00:21:11;9.68;;;2.20;;
42332;SDS011;27984;51.476;5.702;2023-07-13T00:23:38;9.10;;;2.30;;
42332;SDS011;27984;51.476;5.702;2023-07-13T00:26:05;8.07;;;2.35;;
42332;SDS011;27984;51.476;5.702;2023-07-13T00:28:32;7.88;;;2.55;;
42332;SDS011;27984;51.476;5.702;2023-07-13T00:30:58;9.05;;;2.17;;
42332;SDS011;27984;51.476;5.702;2023-07-13T00:33:25;8.63;;;2.47;;
42332;SDS011;27984;51.476;5.702;2023-07-13T00:35:51;9.27;;;2.10;;
42332;SDS011;27984;51.476;5.702;2023-07-13T00:38:17;7.68;;;2.15;;
42332;SDS011;27984;51.476;5.702;2023-07-13T00:40:43;5.65;;;1.90;;
42332;SDS011;27984;51.476;5.702;2023-07-13T00:43:13;10.25;;;2.10;;
42332;SDS011;27984;51.476;5.702;2023-07-13T00:48:08;5.32;;;1.98;;
42332;SDS011;27984;51.476;5.702;2023-07-13T00:50:34;7.90;;;1.75;;
42332;SDS011;27984;51.476;5.702;2023-07-13T00:53:00;7.63;;;1.92;;
42332;SDS011;27984;51.476;5.702;2023-07-13T00:55:27;7.88;;;1.95;;
42332;SDS011;27984;51.476;5.702;2023-07-13T00:57:53;5.63;;;2.42;;
42332;SDS011;27984;51.476;5.702;2023-07-13T01:00:19;5.80;;;1.88;;
42332;SDS011;27984;51.476;5.702;2023-07-13T01:02:46;7.57;;;1.88;;
42332;SDS011;27984;51.476;5.702;2023-07-13T01:05:14;7.70;;;1.60;;
42332;SDS011;27984;51.476;5.702;2023-07-13T01:07:41;6.93;;;1.92;;
42332;SDS011;27984;51.476;5.702;2023-07-13T01:10:07;6.85;;;1.98;;
42332;SDS011;27984;51.476;5.702;2023-07-13T01:12:34;9.43;;;2.30;;
42332;SDS011;27984;51.476;5.702;2023-07-13T01:15:00;11.77;;;2.40;;
42332;SDS011;27984;51.476;5.702;2023-07-13T01:17:27;10.43;;;2.35;;
42332;SDS011;27984;51.476;5.702;2023-07-13T01:19:53;10.75;;;2.60;;
42332;SDS011;27984;51.476;5.702;2023-07-13T01:22:19;10.98;;;2.63;;
42332;SDS011;27984;51.476;5.702;2023-07-13T01:24:50;9.75;;;2.38;;
42332;SDS011;27984;51.476;5.702;2023-07-13T01:27:19;10.40;;;2.50;;
42332;SDS011;27984;51.476;5.702;2023-07-13T01:29:46;6.20;;;2.05;;
42332;SDS011;27984;51.476;5.702;2023-07-13T01:32:17;6.60;;;1.90;;
42332;SDS011;27984;51.476;5.702;2023-07-13T01:34:50;10.15;;;2.30;;
42332;SDS011;27984;51.476;5.702;2023-07-13T01:37:20;6.97;;;1.75;;
42332;SDS011;27984;51.476;5.702;2023-07-13T01:39:46;3.53;;;1.88;;
42332;SDS011;27984;51.476;5.702;2023-07-13T01:42:13;9.40;;;2.50;;
42332;SDS011;27984;51.476;5.702;2023-07-13T01:44:39;7.03;;;1.90;;
42332;SDS011;27984;51.476;5.702;2023-07-13T01:47:05;3.13;;;1.80;;
42332;SDS011;27984;51.476;5.702;2023-07-13T01:49:31;5.57;;;1.60;;
42332;SDS011;27984;51.476;5.702;2023-07-13T01:51:57;4.82;;;1.77;;
42332;SDS011;27984;51.476;5.702;2023-07-13T01:54:23;7.40;;;1.92;;
42332;SDS011;27984;51.476;5.702;2023-07-13T01:56:49;6.35;;;2.10;;
42332;SDS011;27984;51.476;5.702;2023-07-13T01:59:15;7.38;;;1.92;;
42332;SDS011;27984;51.476;5.702;2023-07-13T02:01:41;8.35;;;2.53;;
42332;SDS011;27984;51.476;5.702;2023-07-13T02:04:07;7.55;;;2.28;;
42332;SDS011;27984;51.476;5.702;2023-07-13T02:06:33;10.65;;;2.58;;
42332;SDS011;27984;51.476;5.702;2023-07-13T02:08:59;8.90;;;2.50;;
42332;SDS011;27984;51.476;5.702;2023-07-13T02:11:25;11.15;;;2.70;;
42332;SDS011;27984;51.476;5.702;2023-07-13T02:13:57;9.93;;;2.30;;
42332;SDS011;27984;51.476;5.702;2023-07-13T02:16:23;10.63;;;2.63;;
42332;SDS011;27984;51.476;5.702;2023-07-13T02:18:50;8.13;;;2.00;;
42332;SDS011;27984;51.476;5.702;2023-07-13T02:21:17;9.05;;;2.42;;
42332;SDS011;27984;51.476;5.702;2023-07-13T02:23:43;7.43;;;2.50;;
42332;SDS011;27984;51.476;5.702;2023-07-13T02:26:09;7.03;;;2.33;;
42332;SDS011;27984;51.476;5.702;2023-07-13T02:28:35;9.50;;;2.83;;
42332;SDS011;27984;51.476;5.702;2023-07-13T02:31:08;11.73;;;3.17;;
42332;SDS011;27984;51.476;5.702;2023-07-13T02:33:35;10.43;;;3.00;;
42332;SDS011;27984;51.476;5.702;2023-07-13T02:36:01;10.88;;;3.67;;
42332;SDS011;27984;51.476;5.702;2023-07-13T02:38:27;12.55;;;3.33;;
42332;SDS011;27984;51.476;5.702;2023-07-13T02:40:53;10.45;;;3.22;;
42332;SDS011;27984;51.476;5.702;2023-07-13T02:43:19;8.07;;;3.00;;
42332;SDS011;27984;51.476;5.702;2023-07-13T02:45:45;9.45;;;2.90;;
42332;SDS011;27984;51.476;5.702;2023-07-13T02:48:13;7.85;;;3.00;;
42332;SDS011;27984;51.476;5.702;2023-07-13T02:50:39;11.05;;;2.70;;
42332;SDS011;27984;51.476;5.702;2023-07-13T02:53:05;10.13;;;2.78;;
42332;SDS011;27984;51.476;5.702;2023-07-13T02:55:31;9.02;;;2.42;;
42332;SDS011;27984;51.476;5.702;2023-07-13T02:57:57;9.45;;;2.67;;
42332;SDS011;27984;51.476;5.702;2023-07-13T03:00:23;10.70;;;2.83;;
42332;SDS011;27984;51.476;5.702;2023-07-13T03:02:49;9.73;;;2.67;;
42332;SDS011;27984;51.476;5.702;2023-07-13T03:05:15;10.55;;;2.70;;
42332;SDS011;27984;51.476;5.702;2023-07-13T03:07:41;13.48;;;2.90;;
42332;SDS011;27984;51.476;5.702;2023-07-13T03:10:09;12.00;;;2.95;;
42332;SDS011;27984;51.476;5.702;2023-07-13T03:12:35;13.43;;;3.38;;
42332;SDS011;27984;51.476;5.702;2023-07-13T03:15:01;13.75;;;3.40;;
42332;SDS011;27984;51.476;5.702;2023-07-13T03:17:27;12.02;;;3.53;;
42332;SDS011;27984;51.476;5.702;2023-07-13T03:19:53;13.70;;;3.75;;
42332;SDS011;27984;51.476;5.702;2023-07-13T03:22:19;15.85;;;3.80;;
42332;SDS011;27984;51.476;5.702;2023-07-13T03:24:46;13.13;;;3.55;;
42332;SDS011;27984;51.476;5.702;2023-07-13T03:27:14;12.23;;;3.85;;
42332;SDS011;27984;51.476;5.702;2023-07-13T03:29:40;13.50;;;3.47;;
42332;SDS011;27984;51.476;5.702;2023-07-13T03:32:06;13.45;;;3.65;;
42332;SDS011;27984;51.476;5.702;2023-07-13T03:34:32;13.77;;;3.95;;
42332;SDS011;27984;51.476;5.702;2023-07-13T03:36:58;10.50;;;3.63;;
42332;SDS011;27984;51.476;5.702;2023-07-13T03:39:24;7.85;;;2.78;;
42332;SDS011;27984;51.476;5.702;2023-07-13T03:41:50;8.43;;;2.67;;
42332;SDS011;27984;51.476;5.702;2023-07-13T03:44:16;10.73;;;3.08;;
42332;SDS011;27984;51.476;5.702;2023-07-13T03:46:42;9.18;;;2.67;;
42332;SDS011;27984;51.476;5.702;2023-07-13T03:49:08;10.27;;;3.00;;
42332;SDS011;27984;51.476;5.702;2023-07-13T03:51:34;13.27;;;3.63;;
42332;SDS011;27984;51.476;5.702;2023-07-13T03:54:00;6.72;;;2.42;;
42332;SDS011;27984;51.476;5.702;2023-07-13T03:56:27;9.32;;;2.85;;
42332;SDS011;27984;51.476;5.702;2023-07-13T03:58:53;7.75;;;2.45;;
42332;SDS011;27984;51.476;5.702;2023-07-13T04:01:20;10.52;;;2.65;;
42332;SDS011;27984;51.476;5.702;2023-07-13T04:03:46;7.32;;;2.67;;
42332;SDS011;27984;51.476;5.702;2023-07-13T04:06:20;7.03;;;2.70;;
42332;SDS011;27984;51.476;5.702;2023-07-13T04:08:47;10.43;;;2.97;;
42332;SDS011;27984;51.476;5.702;2023-07-13T04:11:14;10.23;;;2.90;;
42332;SDS011;27984;51.476;5.702;2023-07-13T04:13:40;9.80;;;2.83;;
42332;SDS011;27984;51.476;5.702;2023-07-13T04:16:06;7.57;;;3.35;;
42332;SDS011;27984;51.476;5.702;2023-07-13T04:18:32;8.75;;;3.05;;
42332;SDS011;27984;51.476;5.702;2023-07-13T04:20:58;12.05;;;3.33;;
42332;SDS011;27984;51.476;5.702;2023-07-13T04:23:24;9.90;;;3.15;;
42332;SDS011;27984;51.476;5.702;2023-07-13T04:25:51;15.93;;;3.67;;
42332;SDS011;27984;51.476;5.702;2023-07-13T04:28:18;9.25;;;3.17;;
42332;SDS011;27984;51.476;5.702;2023-07-13T04:30:44;15.68;;;3.70;;
42332;SDS011;27984;51.476;5.702;2023-07-13T04:33:11;12.95;;;4.03;;
42332;SDS011;27984;51.476;5.702;2023-07-13T04:35:36;10.48;;;3.80;;
42332;SDS011;27984;51.476;5.702;2023-07-13T04:38:03;11.27;;;4.10;;
42332;SDS011;27984;51.476;5.702;2023-07-13T04:40:29;13.82;;;4.05;;
42332;SDS011;27984;51.476;5.702;2023-07-13T04:42:55;19.65;;;4.35;;
42332;SDS011;27984;51.476;5.702;2023-07-13T04:45:21;16.05;;;4.63;;
42332;SDS011;27984;51.476;5.702;2023-07-13T04:47:48;14.98;;;4.60;;
42332;SDS011;27984;51.476;5.702;2023-07-13T04:50:14;17.55;;;4.35;;
42332;SDS011;27984;51.476;5.702;2023-07-13T04:52:44;13.10;;;4.43;;
42332;SDS011;27984;51.476;5.702;2023-07-13T04:55:11;14.38;;;4.05;;
42332;SDS011;27984;51.476;5.702;2023-07-13T04:57:37;12.55;;;4.30;;
42332;SDS011;27984;51.476;5.702;2023-07-13T05:00:03;11.45;;;4.10;;
42332;SDS011;27984;51.476;5.702;2023-07-13T05:02:32;14.82;;;4.20;;
42332;SDS011;27984;51.476;5.702;2023-07-13T05:04:58;19.38;;;4.30;;
42332;SDS011;27984;51.476;5.702;2023-07-13T05:07:24;14.48;;;4.18;;
42332;SDS011;27984;51.476;5.702;2023-07-13T05:09:50;14.70;;;4.63;;
42332;SDS011;27984;51.476;5.702;2023-07-13T05:12:17;15.95;;;5.03;;
42332;SDS011;27984;51.476;5.702;2023-07-13T05:14:43;14.73;;;4.63;;
42332;SDS011;27984;51.476;5.702;2023-07-13T05:17:09;13.00;;;4.85;;
42332;SDS011;27984;51.476;5.702;2023-07-13T05:19:35;13.73;;;4.75;;
42332;SDS011;27984;51.476;5.702;2023-07-13T05:22:01;14.98;;;4.93;;
42332;SDS011;27984;51.476;5.702;2023-07-13T05:24:28;19.33;;;5.20;;
42332;SDS011;27984;51.476;5.702;2023-07-13T05:26:54;17.13;;;5.38;;
42332;SDS011;27984;51.476;5.702;2023-07-13T05:29:21;16.55;;;4.72;;
42332;SDS011;27984;51.476;5.702;2023-07-13T05:31:47;17.83;;;5.50;;
42332;SDS011;27984;51.476;5.702;2023-07-13T05:34:13;17.27;;;5.60;;
42332;SDS011;27984;51.476;5.702;2023-07-13T05:36:39;19.17;;;6.15;;
42332;SDS011;27984;51.476;5.702;2023-07-13T05:39:05;19.27;;;6.28;;
42332;SDS011;27984;51.476;5.702;2023-07-13T05:41:31;17.73;;;5.47;;
42332;SDS011;27984;51.476;5.702;2023-07-13T05:43:57;12.82;;;4.97;;
42332;SDS011;27984;51.476;5.702;2023-07-13T05:46:24;18.52;;;6.03;;
42332;SDS011;27984;51.476;5.702;2023-07-13T05:48:50;16.02;;;4.72;;
42332;SDS011;27984;51.476;5.702;2023-07-13T05:51:16;22.15;;;5.82;;
42332;SDS011;27984;51.476;5.702;2023-07-13T05:53:42;18.40;;;5.38;;
42332;SDS011;27984;51.476;5.702;2023-07-13T05:56:08;16.85;;;5.95;;
42332;SDS011;27984;51.476;5.702;2023-07-13T05:58:34;16.23;;;5.60;;
42332;SDS011;27984;51.476;5.702;2023-07-13T06:01:04;19.20;;;6.40;;
42332;SDS011;27984;51.476;5.702;2023-07-13T06:03:31;17.17;;;5.80;;
42332;SDS011;27984;51.476;5.702;2023-07-13T06:05:57;18.08;;;5.82;;
42332;SDS011;27984;51.476;5.702;2023-07-13T06:08:25;18.92;;;5.47;;
42332;SDS011;27984;51.476;5.702;2023-07-13T06:10:51;17.13;;;6.22;;
42332;SDS011;27984;51.476;5.702;2023-07-13T06:13:17;18.10;;;5.72;;
42332;SDS011;27984;51.476;5.702;2023-07-13T06:15:47;18.85;;;5.40;;
42332;SDS011;27984;51.476;5.702;2023-07-13T06:18:13;22.45;;;5.40;;
42332;SDS011;27984;51.476;5.702;2023-07-13T06:20:39;15.68;;;5.22;;
42332;SDS011;27984;51.476;5.702;2023-07-13T06:23:05;16.88;;;5.47;;
42332;SDS011;27984;51.476;5.702;2023-07-13T06:25:31;15.35;;;5.20;;
42332;SDS011;27984;51.476;5.702;2023-07-13T06:27:57;16.05;;;5.20;;
42332;SDS011;27984;51.476;5.702;2023-07-13T06:30:23;14.07;;;4.65;;
42332;SDS011;27984;51.476;5.702;2023-07-13T06:32:49;16.38;;;5.75;;
42332;SDS011;27984;51.476;5.702;2023-07-13T06:35:15;22.55;;;6.10;;
42332;SDS011;27984;51.476;5.702;2023-07-13T06:37:41;15.73;;;5.85;;
42332;SDS011;27984;51.476;5.702;2023-07-13T06:40:07;18.95;;;5.70;;
42332;SDS011;27984;51.476;5.702;2023-07-13T06:42:33;15.80;;;5.43;;
42332;SDS011;27984;51.476;5.702;2023-07-13T06:44:59;18.85;;;5.75;;
42332;SDS011;27984;51.476;5.702;2023-07-13T06:47:26;13.82;;;4.97;;
42332;SDS011;27984;51.476;5.702;2023-07-13T06:49:52;19.00;;;5.65;;
42332;SDS011;27984;51.476;5.702;2023-07-13T06:52:18;16.48;;;6.22;;
42332;SDS011;27984;51.476;5.702;2023-07-13T06:54:44;18.05;;;6.05;;
42332;SDS011;27984;51.476;5.702;2023-07-13T06:57:11;18.98;;;5.38;;
42332;SDS011;27984;51.476;5.702;2023-07-13T06:59:37;15.50;;;5.85;;
42332;SDS011;27984;51.476;5.702;2023-07-13T07:02:03;15.63;;;5.95;;
42332;SDS011;27984;51.476;5.702;2023-07-13T07:04:29;18.88;;;6.03;;
42332;SDS011;27984;51.476;5.702;2023-07-13T07:06:55;15.98;;;5.97;;
42332;SDS011;27984;51.476;5.702;2023-07-13T07:09:21;17.52;;;5.88;;
42332;SDS011;27984;51.476;5.702;2023-07-13T07:11:47;16.40;;;5.88;;
42332;SDS011;27984;51.476;5.702;2023-07-13T07:14:19;17.98;;;5.95;;
42332;SDS011;27984;51.476;5.702;2023-07-13T07:16:45;17.38;;;5.65;;
42332;SDS011;27984;51.476;5.702;2023-07-13T07:19:11;14.43;;;5.28;;
42332;SDS011;27984;51.476;5.702;2023-07-13T07:21:37;14.60;;;5.40;;
42332;SDS011;27984;51.476;5.702;2023-07-13T07:24:03;18.88;;;6.13;;
42332;SDS011;27984;51.476;5.702;2023-07-13T07:26:30;18.02;;;5.60;;
42332;SDS011;27984;51.476;5.702;2023-07-13T07:28:56;13.55;;;5.28;;
42332;SDS011;27984;51.476;5.702;2023-07-13T07:31:22;17.42;;;5.10;;
42332;SDS011;27984;51.476;5.702;2023-07-13T07:33:48;16.02;;;5.05;;
42332;SDS011;27984;51.476;5.702;2023-07-13T07:36:15;19.20;;;5.32;;
42332;SDS011;27984;51.476;5.702;2023-07-13T07:38:41;17.83;;;5.10;;
42332;SDS011;27984;51.476;5.702;2023-07-13T07:41:07;19.67;;;4.97;;
42332;SDS011;27984;51.476;5.702;2023-07-13T07:43:33;13.60;;;4.50;;
42332;SDS011;27984;51.476;5.702;2023-07-13T07:45:59;15.32;;;4.57;;
42332;SDS011;27984;51.476;5.702;2023-07-13T07:48:25;13.27;;;4.50;;
42332;SDS011;27984;51.476;5.702;2023-07-13T07:50:51;12.93;;;4.60;;
42332;SDS011;27984;51.476;5.702;2023-07-13T07:53:17;16.95;;;4.68;;
42332;SDS011;27984;51.476;5.702;2023-07-13T07:55:43;18.50;;;5.00;;
42332;SDS011;27984;51.476;5.702;2023-07-13T07:58:10;15.02;;;4.93;;
42332;SDS011;27984;51.476;5.702;2023-07-13T08:00:36;15.50;;;4.65;;
42332;SDS011;27984;51.476;5.702;2023-07-13T08:03:02;20.00;;;5.20;;
42332;SDS011;27984;51.476;5.702;2023-07-13T08:05:28;14.27;;;4.38;;
42332;SDS011;27984;51.476;5.702;2023-07-13T08:07:54;10.52;;;4.35;;
42332;SDS011;27984;51.476;5.702;2023-07-13T08:10:20;14.60;;;4.25;;
42332;SDS011;27984;51.476;5.702;2023-07-13T08:12:46;15.27;;;4.07;;
42332;SDS011;27984;51.476;5.702;2023-07-13T08:15:13;11.68;;;3.83;;
42332;SDS011;27984;51.476;5.702;2023-07-13T08:17:41;13.48;;;4.10;;
42332;SDS011;27984;51.476;5.702;2023-07-13T08:20:07;13.35;;;4.20;;
42332;SDS011;27984;51.476;5.702;2023-07-13T08:22:36;12.50;;;3.72;;
42332;SDS011;27984;51.476;5.702;2023-07-13T08:25:02;10.65;;;3.60;;
42332;SDS011;27984;51.476;5.702;2023-07-13T08:27:29;10.18;;;3.10;;
42332;SDS011;27984;51.476;5.702;2023-07-13T08:29:55;9.80;;;3.00;;
42332;SDS011;27984;51.476;5.702;2023-07-13T08:32:21;12.65;;;3.50;;
42332;SDS011;27984;51.476;5.702;2023-07-13T08:34:47;13.10;;;3.65;;
42332;SDS011;27984;51.476;5.702;2023-07-13T08:37:14;9.30;;;3.13;;
42332;SDS011;27984;51.476;5.702;2023-07-13T08:39:40;7.72;;;2.60;;
42332;SDS011;27984;51.476;5.702;2023-07-13T08:47:18;9.93;;;2.83;;
42332;SDS011;27984;51.476;5.702;2023-07-13T08:49:46;11.18;;;2.70;;
42332;SDS011;27984;51.476;5.702;2023-07-13T08:52:18;12.55;;;3.28;;
42332;SDS011;27984;51.476;5.702;2023-07-13T08:54:50;9.77;;;2.70;;
42332;SDS011;27984;51.476;5.702;2023-07-13T08:57:18;7.60;;;2.50;;
42332;SDS011;27984;51.476;5.702;2023-07-13T08:59:45;11.30;;;2.88;;
42332;SDS011;27984;51.476;5.702;2023-07-13T09:04:45;9.23;;;2.80;;
42332;SDS011;27984;51.476;5.702;2023-07-13T09:07:17;10.65;;;2.70;;
42332;SDS011;27984;51.476;5.702;2023-07-13T09:09:57;7.32;;;2.53;;
42332;SDS011;27984;51.476;5.702;2023-07-13T09:17:31;9.90;;;2.60;;
42332;SDS011;27984;51.476;5.702;2023-07-13T09:20:01;6.90;;;2.15;;
42332;SDS011;27984;51.476;5.702;2023-07-13T09:22:29;9.32;;;2.65;;
42332;SDS011;27984;51.476;5.702;2023-07-13T09:27:42;9.80;;;2.50;;
42332;SDS011;27984;51.476;5.702;2023-07-13T09:32:47;8.00;;;2.28;;
42332;SDS011;27984;51.476;5.702;2023-07-13T09:35:16;9.30;;;2.00;;
42332;SDS011;27984;51.476;5.702;2023-07-13T09:37:43;10.02;;;2.13;;
42332;SDS011;27984;51.476;5.702;2023-07-13T09:40:11;6.55;;;2.15;;
42332;SDS011;27984;51.476;5.702;2023-07-13T09:42:40;8.20;;;2.05;;
42332;SDS011;27984;51.476;5.702;2023-07-13T09:45:07;8.63;;;1.98;;
42332;SDS011;27984;51.476;5.702;2023-07-13T09:47:38;10.40;;;1.90;;
42332;SDS011;27984;51.476;5.702;2023-07-13T09:50:06;8.80;;;2.20;;
42332;SDS011;27984;51.476;5.702;2023-07-13T09:52:48;7.55;;;1.83;;
42332;SDS011;27984;51.476;5.702;2023-07-13T09:55:34;9.60;;;2.40;;
42332;SDS011;27984;51.476;5.702;2023-07-13T10:00:40;8.88;;;1.67;;
42332;SDS011;27984;51.476;5.702;2023-07-13T10:03:14;7.90;;;1.67;;
42332;SDS011;27984;51.476;5.702;2023-07-13T10:05:42;6.50;;;1.92;;
42332;SDS011;27984;51.476;5.702;2023-07-13T10:11:21;5.05;;;1.70;;
42332;SDS011;27984;51.476;5.702;2023-07-13T10:13:52;8.80;;;2.58;;
42332;SDS011;27984;51.476;5.702;2023-07-13T10:16:23;6.22;;;1.98;;
42332;SDS011;27984;51.476;5.702;2023-07-13T10:18:55;6.65;;;2.15;;
42332;SDS011;27984;51.476;5.702;2023-07-13T10:21:22;6.15;;;2.00;;
42332;SDS011;27984;51.476;5.702;2023-07-13T10:23:50;7.95;;;1.90;;
42332;SDS011;27984;51.476;5.702;2023-07-13T10:26:21;4.80;;;1.70;;
42332;SDS011;27984;51.476;5.702;2023-07-13T10:28:49;7.63;;;2.00;;
42332;SDS011;27984;51.476;5.702;2023-07-13T10:31:17;9.73;;;2.30;;
42332;SDS011;27984;51.476;5.702;2023-07-13T10:33:44;6.20;;;1.98;;
42332;SDS011;27984;51.476;5.702;2023-07-13T10:41:14;5.72;;;1.90;;
42332;SDS011;27984;51.476;5.702;2023-07-13T10:43:43;7.00;;;2.10;;
42332;SDS011;27984;51.476;5.702;2023-07-13T10:46:11;6.28;;;2.50;;
42332;SDS011;27984;51.476;5.702;2023-07-13T10:48:39;6.25;;;2.13;;
42332;SDS011;27984;51.476;5.702;2023-07-13T10:51:06;7.35;;;2.00;;
42332;SDS011;27984;51.476;5.702;2023-07-13T10:53:34;10.35;;;1.70;;
42332;SDS011;27984;51.476;5.702;2023-07-13T10:56:24;8.02;;;1.88;;
42332;SDS011;27984;51.476;5.702;2023-07-13T10:58:47;8.68;;;2.00;;
42332;SDS011;27984;51.476;5.702;2023-07-13T11:01:27;4.10;;;1.50;;
42332;SDS011;27984;51.476;5.702;2023-07-13T11:04:04;6.40;;;2.22;;
42332;SDS011;27984;51.476;5.702;2023-07-13T11:10:03;7.75;;;2.50;;
42332;SDS011;27984;51.476;5.702;2023-07-13T11:12:50;10.13;;;3.28;;
42332;SDS011;27984;51.476;5.702;2023-07-13T11:17:32;17.52;;;4.22;;
42332;SDS011;27984;51.476;5.702;2023-07-13T11:22:43;10.82;;;2.85;;
42332;SDS011;27984;51.476;5.702;2023-07-13T11:30:37;8.52;;;2.40;;
42332;SDS011;27984;51.476;5.702;2023-07-13T11:35:40;6.72;;;2.92;;
42332;SDS011;27984;51.476;5.702;2023-07-13T11:38:10;10.80;;;4.72;;
42332;SDS011;27984;51.476;5.702;2023-07-13T11:40:38;6.53;;;2.28;;
42332;SDS011;27984;51.476;5.702;2023-07-13T11:43:04;12.52;;;5.28;;
42332;SDS011;27984;51.476;5.702;2023-07-13T11:45:32;9.65;;;3.00;;
42332;SDS011;27984;51.476;5.702;2023-07-13T11:47:59;10.02;;;3.38;;
42332;SDS011;27984;51.476;5.702;2023-07-13T11:50:26;6.53;;;2.65;;
42332;SDS011;27984;51.476;5.702;2023-07-13T11:52:54;8.60;;;3.28;;
42332;SDS011;27984;51.476;5.702;2023-07-13T11:55:21;14.45;;;6.05;;
42332;SDS011;27984;51.476;5.702;2023-07-13T11:57:59;9.48;;;2.35;;
42332;SDS011;27984;51.476;5.702;2023-07-13T12:00:28;8.05;;;1.80;;
42332;SDS011;27984;51.476;5.702;2023-07-13T12:02:55;7.80;;;2.55;;
42332;SDS011;27984;51.476;5.702;2023-07-13T12:05:22;6.70;;;2.88;;
42332;SDS011;27984;51.476;5.702;2023-07-13T12:07:50;10.07;;;2.92;;
42332;SDS011;27984;51.476;5.702;2023-07-13T12:10:17;7.53;;;2.25;;
42332;SDS011;27984;51.476;5.702;2023-07-13T12:13:03;7.30;;;2.50;;
42332;SDS011;27984;51.476;5.702;2023-07-13T12:17:56;8.00;;;2.38;;
42332;SDS011;27984;51.476;5.702;2023-07-13T12:20:30;7.10;;;2.20;;
42332;SDS011;27984;51.476;5.702;2023-07-13T12:22:59;6.22;;;1.75;;
42332;SDS011;27984;51.476;5.702;2023-07-13T12:25:27;8.43;;;2.58;;
42332;SDS011;27984;51.476;5.702;2023-07-13T12:27:55;7.75;;;2.17;;
42332;SDS011;27984;51.476;5.702;2023-07-13T12:30:31;6.78;;;2.20;;
42332;SDS011;27984;51.476;5.702;2023-07-13T12:33:07;5.72;;;2.50;;
42332;SDS011;27984;51.476;5.702;2023-07-13T12:35:38;10.10;;;2.65;;
42332;SDS011;27984;51.476;5.702;2023-07-13T12:38:07;6.00;;;2.30;;
42332;SDS011;27984;51.476;5.702;2023-07-13T12:40:34;3.78;;;2.30;;
42332;SDS011;27984;51.476;5.702;2023-07-13T12:43:02;8.60;;;2.75;;
42332;SDS011;27984;51.476;5.702;2023-07-13T12:45:31;7.65;;;2.65;;
42332;SDS011;27984;51.476;5.702;2023-07-13T12:47:59;10.55;;;2.95;;
42332;SDS011;27984;51.476;5.702;2023-07-13T12:50:29;7.43;;;2.47;;
42332;SDS011;27984;51.476;5.702;2023-07-13T12:52:59;6.78;;;2.88;;
42332;SDS011;27984;51.476;5.702;2023-07-13T12:55:28;8.30;;;2.85;;
42332;SDS011;27984;51.476;5.702;2023-07-13T12:57:57;4.65;;;2.40;;
42332;SDS011;27984;51.476;5.702;2023-07-13T13:02:54;8.02;;;3.22;;
42332;SDS011;27984;51.476;5.702;2023-07-13T13:05:21;5.47;;;2.67;;
42332;SDS011;27984;51.476;5.702;2023-07-13T13:07:49;7.30;;;3.35;;
42332;SDS011;27984;51.476;5.702;2023-07-13T13:10:15;9.57;;;2.90;;
42332;SDS011;27984;51.476;5.702;2023-07-13T13:12:41;6.60;;;2.70;;
42332;SDS011;27984;51.476;5.702;2023-07-13T13:15:08;7.82;;;2.03;;
42332;SDS011;27984;51.476;5.702;2023-07-13T13:17:37;8.60;;;2.33;;
42332;SDS011;27984;51.476;5.702;2023-07-13T13:20:14;5.68;;;1.80;;
42332;SDS011;27984;51.476;5.702;2023-07-13T13:22:41;7.45;;;1.67;;
42332;SDS011;27984;51.476;5.702;2023-07-13T13:25:09;3.88;;;1.63;;
42332;SDS011;27984;51.476;5.702;2023-07-13T13:27:35;3.60;;;1.52;;
42332;SDS011;27984;51.476;5.702;2023-07-13T13:30:02;8.52;;;1.80;;
42332;SDS011;27984;51.476;5.702;2023-07-13T13:32:28;3.67;;;1.65;;
42332;SDS011;27984;51.476;5.702;2023-07-13T13:34:54;4.82;;;1.73;;
42332;SDS011;27984;51.476;5.702;2023-07-13T13:37:21;5.85;;;2.63;;
42332;SDS011;27984;51.476;5.702;2023-07-13T13:39:48;4.90;;;1.80;;
42332;SDS011;27984;51.476;5.702;2023-07-13T13:42:14;4.78;;;1.63;;
42332;SDS011;27984;51.476;5.702;2023-07-13T13:44:40;6.75;;;1.98;;
42332;SDS011;27984;51.476;5.702;2023-07-13T13:47:08;5.28;;;2.47;;
42332;SDS011;27984;51.476;5.702;2023-07-13T13:49:43;4.38;;;2.20;;
42332;SDS011;27984;51.476;5.702;2023-07-13T13:52:09;6.93;;;2.55;;
42332;SDS011;27984;51.476;5.702;2023-07-13T13:54:35;7.47;;;2.72;;
42332;SDS011;27984;51.476;5.702;2023-07-13T13:57:01;3.55;;;2.10;;
42332;SDS011;27984;51.476;5.702;2023-07-13T13:59:27;5.35;;;2.38;;
42332;SDS011;27984;51.476;5.702;2023-07-13T14:01:53;9.23;;;2.90;;
42332;SDS011;27984;51.476;5.702;2023-07-13T14:04:20;6.50;;;2.88;;
42332;SDS011;27984;51.476;5.702;2023-07-13T14:06:46;5.20;;;2.53;;
42332;SDS011;27984;51.476;5.702;2023-07-13T14:09:13;4.53;;;2.13;;
42332;SDS011;27984;51.476;5.702;2023-07-13T14:11:40;6.63;;;2.20;;
42332;SDS011;27984;51.476;5.702;2023-07-13T14:14:16;6.18;;;2.58;;
42332;SDS011;27984;51.476;5.702;2023-07-13T14:16:43;5.10;;;2.38;;
42332;SDS011;27984;51.476;5.702;2023-07-13T14:19:11;5.22;;;2.20;;
42332;SDS011;27984;51.476;5.702;2023-07-13T14:21:39;6.80;;;2.15;;
42332;SDS011;27984;51.476;5.702;2023-07-13T14:24:05;4.32;;;2.05;;
42332;SDS011;27984;51.476;5.702;2023-07-13T14:26:32;4.35;;;2.08;;
42332;SDS011;27984;51.476;5.702;2023-07-13T14:29:01;5.93;;;2.40;;
42332;SDS011;27984;51.476;5.702;2023-07-13T14:31:27;5.72;;;2.03;;
42332;SDS011;27984;51.476;5.702;2023-07-13T14:33:54;3.95;;;2.03;;
42332;SDS011;27984;51.476;5.702;2023-07-13T14:38:46;7.13;;;2.10;;
42332;SDS011;27984;51.476;5.702;2023-07-13T14:41:12;10.15;;;4.28;;
42332;SDS011;27984;51.476;5.702;2023-07-13T14:43:38;6.25;;;2.17;;
42332;SDS011;27984;51.476;5.702;2023-07-13T14:46:04;3.78;;;1.85;;
42332;SDS011;27984;51.476;5.702;2023-07-13T14:48:30;3.90;;;1.90;;
42332;SDS011;27984;51.476;5.702;2023-07-13T14:50:57;4.43;;;1.85;;
42332;SDS011;27984;51.476;5.702;2023-07-13T14:53:26;4.05;;;1.80;;
42332;SDS011;27984;51.476;5.702;2023-07-13T14:55:53;8.68;;;1.50;;
42332;SDS011;27984;51.476;5.702;2023-07-13T14:58:19;4.07;;;1.83;;
42332;SDS011;27984;51.476;5.702;2023-07-13T15:00:45;5.18;;;1.70;;
42332;SDS011;27984;51.476;5.702;2023-07-13T15:03:23;2.80;;;1.50;;
42332;SDS011;27984;51.476;5.702;2023-07-13T15:05:52;2.53;;;1.27;;
42332;SDS011;27984;51.476;5.702;2023-07-13T15:08:18;2.65;;;1.52;;
42332;SDS011;27984;51.476;5.702;2023-07-13T15:10:44;4.20;;;1.63;;
42332;SDS011;27984;51.476;5.702;2023-07-13T15:13:15;3.97;;;1.60;;
42332;SDS011;27984;51.476;5.702;2023-07-13T15:15:42;4.05;;;1.45;;
42332;SDS011;27984;51.476;5.702;2023-07-13T15:18:12;4.47;;;1.45;;
42332;SDS011;27984;51.476;5.702;2023-07-13T15:20:39;4.18;;;1.63;;
42332;SDS011;27984;51.476;5.702;2023-07-13T15:23:05;1.88;;;1.45;;
42332;SDS011;27984;51.476;5.702;2023-07-13T15:25:33;4.30;;;1.30;;
42332;SDS011;27984;51.476;5.702;2023-07-13T15:28:00;2.50;;;1.38;;
42332;SDS011;27984;51.476;5.702;2023-07-13T15:30:45;3.17;;;1.40;;
42332;SDS011;27984;51.476;5.702;2023-07-13T15:33:29;2.70;;;1.50;;
42332;SDS011;27984;51.476;5.702;2023-07-13T15:35:55;4.82;;;2.28;;
42332;SDS011;27984;51.476;5.702;2023-07-13T15:38:24;7.03;;;2.10;;